Terminal Aerodrome Forecast
Issued by NWS Wichita, KS

Home | Current Version | Previous Version | Text Only | Print | Product List | Glossary On
Versions: 1 2 3 4 5 6 7 8 9 10 11 12 13 14 15 16
497
FTUS43 KICT 281015 AAB
TAFICT
TAF AMD
KICT 281015Z 2810/0106 17010KT 3SM BR BKN009 WS020/22045KT
      TEMPO 2810/2813 1SM BR SCT009
     FM281300 20016G23KT P6SM FEW018 SCT200
     FM281700 21019G27KT P6SM BKN200
     FM010000 33016G23KT P6SM VCSH SCT025 BKN100
      TEMPO 0102/0106 BKN025=

USA.gov is the U.S. government's official web portal to all federal, state and local government web resources and services.